sensor_id;sensor_type;location;lat;lon;timestamp;temperature;humidity
13472;DHT22;6808;49.444;11.034;2023-12-20T00:00:21;5.40;99.90
13472;DHT22;6808;49.444;11.034;2023-12-20T00:02:47;5.40;99.90
13472;DHT22;6808;49.444;11.034;2023-12-20T00:05:13;5.40;99.90
13472;DHT22;6808;49.444;11.034;2023-12-20T00:07:39;5.40;99.90
13472;DHT22;6808;49.444;11.034;2023-12-20T00:10:05;5.40;99.90
13472;DHT22;6808;49.444;11.034;2023-12-20T00:12:31;5.40;99.90
13472;DHT22;6808;49.444;11.034;2023-12-20T00:14:58;5.50;99.90
13472;DHT22;6808;49.444;11.034;2023-12-20T00:17:23;5.50;99.90
13472;DHT22;6808;49.444;11.034;2023-12-20T00:19:49;5.40;99.90
13472;DHT22;6808;49.444;11.034;2023-12-20T00:22:15;5.40;99.90
13472;DHT22;6808;49.444;11.034;2023-12-20T00:24:40;5.60;99.90
13472;DHT22;6808;49.444;11.034;2023-12-20T00:27:06;5.40;99.90
13472;DHT22;6808;49.444;11.034;2023-12-20T00:29:32;5.50;99.90
13472;DHT22;6808;49.444;11.034;2023-12-20T00:31:58;5.40;99.90
13472;DHT22;6808;49.444;11.034;2023-12-20T00:34:23;5.50;99.90
13472;DHT22;6808;49.444;11.034;2023-12-20T00:36:49;5.40;99.90
13472;DHT22;6808;49.444;11.034;2023-12-20T00:39:15;5.40;99.90
13472;DHT22;6808;49.444;11.034;2023-12-20T00:41:40;5.40;99.90
13472;DHT22;6808;49.444;11.034;2023-12-20T00:44:06;5.40;99.90
13472;DHT22;6808;49.444;11.034;2023-12-20T00:46:32;5.40;99.90
13472;DHT22;6808;49.444;11.034;2023-12-20T00:48:57;5.40;99.90
13472;DHT22;6808;49.444;11.034;2023-12-20T00:51:23;5.40;99.90
13472;DHT22;6808;49.444;11.034;2023-12-20T00:53:50;5.40;99.90
13472;DHT22;6808;49.444;11.034;2023-12-20T00:56:20;5.40;99.90
13472;DHT22;6808;49.444;11.034;2023-12-20T00:58:45;5.40;99.90
13472;DHT22;6808;49.444;11.034;2023-12-20T01:01:11;5.40;99.90
13472;DHT22;6808;49.444;11.034;2023-12-20T01:03:36;5.40;99.90
13472;DHT22;6808;49.444;11.034;2023-12-20T01:06:02;5.40;99.90
13472;DHT22;6808;49.444;11.034;2023-12-20T01:08:29;5.40;99.90
13472;DHT22;6808;49.444;11.034;2023-12-20T01:10:55;5.40;99.90
13472;DHT22;6808;49.444;11.034;2023-12-20T01:13:21;5.40;99.90
13472;DHT22;6808;49.444;11.034;2023-12-20T01:15:48;5.40;99.90
13472;DHT22;6808;49.444;11.034;2023-12-20T01:18:14;5.40;99.90
13472;DHT22;6808;49.444;11.034;2023-12-20T01:20:40;5.40;99.90
13472;DHT22;6808;49.444;11.034;2023-12-20T01:23:06;5.40;99.90
13472;DHT22;6808;49.444;11.034;2023-12-20T01:25:31;5.40;99.90
13472;DHT22;6808;49.444;11.034;2023-12-20T01:27:57;5.40;99.90
13472;DHT22;6808;49.444;11.034;2023-12-20T01:30:23;5.40;99.90
13472;DHT22;6808;49.444;11.034;2023-12-20T01:32:48;5.40;99.90
13472;DHT22;6808;49.444;11.034;2023-12-20T01:35:14;5.40;99.90
13472;DHT22;6808;49.444;11.034;2023-12-20T01:37:40;5.40;99.90
13472;DHT22;6808;49.444;11.034;2023-12-20T01:40:05;5.40;99.90
13472;DHT22;6808;49.444;11.034;2023-12-20T01:42:31;5.40;99.90
13472;DHT22;6808;49.444;11.034;2023-12-20T01:44:57;5.40;99.90
13472;DHT22;6808;49.444;11.034;2023-12-20T01:47:22;5.40;99.90
13472;DHT22;6808;49.444;11.034;2023-12-20T01:49:49;5.30;99.90
13472;DHT22;6808;49.444;11.034;2023-12-20T01:52:14;5.30;99.90
13472;DHT22;6808;49.444;11.034;2023-12-20T01:54:40;5.30;99.90
13472;DHT22;6808;49.444;11.034;2023-12-20T01:57:07;5.40;99.90
13472;DHT22;6808;49.444;11.034;2023-12-20T01:59:34;5.30;99.90
13472;DHT22;6808;49.444;11.034;2023-12-20T02:02:00;5.30;99.90
13472;DHT22;6808;49.444;11.034;2023-12-20T02:04:26;5.30;99.90
13472;DHT22;6808;49.444;11.034;2023-12-20T02:06:53;5.30;99.90
13472;DHT22;6808;49.444;11.034;2023-12-20T02:09:19;5.50;99.90
13472;DHT22;6808;49.444;11.034;2023-12-20T02:11:44;5.90;99.90
13472;DHT22;6808;49.444;11.034;2023-12-20T02:14:10;5.30;99.90
13472;DHT22;6808;49.444;11.034;2023-12-20T02:16:36;5.30;99.90
13472;DHT22;6808;49.444;11.034;2023-12-20T02:19:02;5.30;99.90
13472;DHT22;6808;49.444;11.034;2023-12-20T02:21:32;5.20;99.90
13472;DHT22;6808;49.444;11.034;2023-12-20T02:23:59;5.20;99.90
13472;DHT22;6808;49.444;11.034;2023-12-20T02:26:24;5.20;99.90
13472;DHT22;6808;49.444;11.034;2023-12-20T02:28:50;5.10;99.90
13472;DHT22;6808;49.444;11.034;2023-12-20T02:31:15;5.10;99.90
13472;DHT22;6808;49.444;11.034;2023-12-20T02:33:41;5.10;99.90
13472;DHT22;6808;49.444;11.034;2023-12-20T02:36:07;5.00;99.90
13472;DHT22;6808;49.444;11.034;2023-12-20T02:38:33;5.00;99.90
13472;DHT22;6808;49.444;11.034;2023-12-20T02:40:59;5.00;99.90
13472;DHT22;6808;49.444;11.034;2023-12-20T02:43:25;4.90;99.90
13472;DHT22;6808;49.444;11.034;2023-12-20T02:45:50;4.90;99.90
13472;DHT22;6808;49.444;11.034;2023-12-20T02:48:16;4.90;99.90
13472;DHT22;6808;49.444;11.034;2023-12-20T02:50:41;4.90;99.90
13472;DHT22;6808;49.444;11.034;2023-12-20T02:53:07;4.90;99.90
13472;DHT22;6808;49.444;11.034;2023-12-20T02:55:32;4.90;99.90
13472;DHT22;6808;49.444;11.034;2023-12-20T02:57:58;4.90;99.90
13472;DHT22;6808;49.444;11.034;2023-12-20T03:00:24;4.80;99.90
13472;DHT22;6808;49.444;11.034;2023-12-20T03:02:50;4.80;99.90
13472;DHT22;6808;49.444;11.034;2023-12-20T03:05:16;4.70;99.90
13472;DHT22;6808;49.444;11.034;2023-12-20T03:07:41;4.70;99.90
13472;DHT22;6808;49.444;11.034;2023-12-20T03:10:08;4.70;99.90
13472;DHT22;6808;49.444;11.034;2023-12-20T03:12:34;4.60;99.90
13472;DHT22;6808;49.444;11.034;2023-12-20T03:15:00;4.60;99.90
13472;DHT22;6808;49.444;11.034;2023-12-20T03:17:25;4.60;99.90
13472;DHT22;6808;49.444;11.034;2023-12-20T03:19:51;4.60;99.90
13472;DHT22;6808;49.444;11.034;2023-12-20T03:22:17;4.60;99.90
13472;DHT22;6808;49.444;11.034;2023-12-20T03:24:42;4.60;99.90
13472;DHT22;6808;49.444;11.034;2023-12-20T03:27:08;4.60;99.90
13472;DHT22;6808;49.444;11.034;2023-12-20T03:29:33;4.60;99.90
13472;DHT22;6808;49.444;11.034;2023-12-20T03:31:59;4.60;99.90
13472;DHT22;6808;49.444;11.034;2023-12-20T03:34:24;4.60;99.90
13472;DHT22;6808;49.444;11.034;2023-12-20T03:36:50;4.50;99.90
13472;DHT22;6808;49.444;11.034;2023-12-20T03:39:15;4.60;99.90
13472;DHT22;6808;49.444;11.034;2023-12-20T03:41:41;4.50;99.90
13472;DHT22;6808;49.444;11.034;2023-12-20T03:44:06;4.50;99.90
13472;DHT22;6808;49.444;11.034;2023-12-20T03:46:32;4.50;99.90
13472;DHT22;6808;49.444;11.034;2023-12-20T03:48:57;4.50;99.90
13472;DHT22;6808;49.444;11.034;2023-12-20T03:51:23;4.50;99.90
13472;DHT22;6808;49.444;11.034;2023-12-20T03:53:48;4.50;99.90
13472;DHT22;6808;49.444;11.034;2023-12-20T03:56:14;4.40;99.90
13472;DHT22;6808;49.444;11.034;2023-12-20T03:58:39;4.40;99.90
13472;DHT22;6808;49.444;11.034;2023-12-20T04:01:09;4.40;99.90
13472;DHT22;6808;49.444;11.034;2023-12-20T04:03:37;4.40;99.90
13472;DHT22;6808;49.444;11.034;2023-12-20T04:06:03;4.40;99.90
13472;DHT22;6808;49.444;11.034;2023-12-20T04:08:28;4.40;99.90
13472;DHT22;6808;49.444;11.034;2023-12-20T04:10:54;4.40;99.90
13472;DHT22;6808;49.444;11.034;2023-12-20T04:13:19;4.40;99.90
13472;DHT22;6808;49.444;11.034;2023-12-20T04:15:45;4.40;99.90
13472;DHT22;6808;49.444;11.034;2023-12-20T04:18:11;4.40;99.90
13472;DHT22;6808;49.444;11.034;2023-12-20T04:20:36;4.40;99.90
13472;DHT22;6808;49.444;11.034;2023-12-20T04:23:02;4.40;99.90
13472;DHT22;6808;49.444;11.034;2023-12-20T04:25:27;4.40;99.90
13472;DHT22;6808;49.444;11.034;2023-12-20T04:27:53;4.40;99.90
13472;DHT22;6808;49.444;11.034;2023-12-20T04:30:18;4.40;99.90
13472;DHT22;6808;49.444;11.034;2023-12-20T04:32:44;4.40;99.90
13472;DHT22;6808;49.444;11.034;2023-12-20T04:35:09;4.40;99.90
13472;DHT22;6808;49.444;11.034;2023-12-20T04:37:35;4.40;99.90
13472;DHT22;6808;49.444;11.034;2023-12-20T04:40:00;4.30;99.90
13472;DHT22;6808;49.444;11.034;2023-12-20T04:42:26;4.30;99.90
13472;DHT22;6808;49.444;11.034;2023-12-20T04:44:52;4.30;99.90
13472;DHT22;6808;49.444;11.034;2023-12-20T04:47:17;4.30;99.90
13472;DHT22;6808;49.444;11.034;2023-12-20T04:49:43;4.30;99.90
13472;DHT22;6808;49.444;11.034;2023-12-20T04:52:09;4.30;99.90
13472;DHT22;6808;49.444;11.034;2023-12-20T04:54:34;4.30;99.90
13472;DHT22;6808;49.444;11.034;2023-12-20T04:57:01;4.30;99.90
13472;DHT22;6808;49.444;11.034;2023-12-20T04:59:26;4.30;99.90
13472;DHT22;6808;49.444;11.034;2023-12-20T05:01:52;4.30;99.90
13472;DHT22;6808;49.444;11.034;2023-12-20T05:04:17;4.30;99.90
13472;DHT22;6808;49.444;11.034;2023-12-20T05:06:43;4.30;99.90
13472;DHT22;6808;49.444;11.034;2023-12-20T05:09:08;4.30;99.90
13472;DHT22;6808;49.444;11.034;2023-12-20T05:11:34;4.30;99.90
13472;DHT22;6808;49.444;11.034;2023-12-20T05:14:00;4.30;99.90
13472;DHT22;6808;49.444;11.034;2023-12-20T05:16:25;4.30;99.90
13472;DHT22;6808;49.444;11.034;2023-12-20T05:18:51;4.20;99.90
13472;DHT22;6808;49.444;11.034;2023-12-20T05:21:17;4.20;99.90
13472;DHT22;6808;49.444;11.034;2023-12-20T05:23:43;4.20;99.90
13472;DHT22;6808;49.444;11.034;2023-12-20T05:26:08;4.20;99.90
13472;DHT22;6808;49.444;11.034;2023-12-20T05:28:34;4.20;99.90
13472;DHT22;6808;49.444;11.034;2023-12-20T05:30:59;4.20;99.90
13472;DHT22;6808;49.444;11.034;2023-12-20T05:33:25;4.20;99.90
13472;DHT22;6808;49.444;11.034;2023-12-20T05:35:50;4.20;99.90
13472;DHT22;6808;49.444;11.034;2023-12-20T05:38:16;4.20;99.90
13472;DHT22;6808;49.444;11.034;2023-12-20T05:40:42;4.30;99.90
13472;DHT22;6808;49.444;11.034;2023-12-20T05:43:07;4.20;99.90
13472;DHT22;6808;49.444;11.034;2023-12-20T05:45:33;4.20;99.90
13472;DHT22;6808;49.444;11.034;2023-12-20T05:47:58;4.20;99.90
13472;DHT22;6808;49.444;11.034;2023-12-20T05:50:24;4.20;99.90
13472;DHT22;6808;49.444;11.034;2023-12-20T05:52:49;4.20;99.90
13472;DHT22;6808;49.444;11.034;2023-12-20T05:55:15;4.20;99.90
13472;DHT22;6808;49.444;11.034;2023-12-20T05:57:41;4.20;99.90
13472;DHT22;6808;49.444;11.034;2023-12-20T06:00:09;4.20;99.90
13472;DHT22;6808;49.444;11.034;2023-12-20T06:02:34;4.20;99.90
13472;DHT22;6808;49.444;11.034;2023-12-20T06:05:03;4.20;99.90
13472;DHT22;6808;49.444;11.034;2023-12-20T06:07:29;4.20;99.90
13472;DHT22;6808;49.444;11.034;2023-12-20T06:09:55;4.20;99.90
13472;DHT22;6808;49.444;11.034;2023-12-20T06:12:20;4.20;99.90
13472;DHT22;6808;49.444;11.034;2023-12-20T06:14:46;4.20;99.90
13472;DHT22;6808;49.444;11.034;2023-12-20T06:17:11;4.20;99.90
13472;DHT22;6808;49.444;11.034;2023-12-20T06:19:37;4.20;99.90
13472;DHT22;6808;49.444;11.034;2023-12-20T06:22:02;4.20;99.90
13472;DHT22;6808;49.444;11.034;2023-12-20T06:24:28;4.20;99.90
13472;DHT22;6808;49.444;11.034;2023-12-20T06:26:54;3.90;99.90
13472;DHT22;6808;49.444;11.034;2023-12-20T06:29:20;4.20;99.90
13472;DHT22;6808;49.444;11.034;2023-12-20T06:31:46;4.10;99.90
13472;DHT22;6808;49.444;11.034;2023-12-20T06:34:11;4.10;99.90
13472;DHT22;6808;49.444;11.034;2023-12-20T06:36:37;4.10;99.90
13472;DHT22;6808;49.444;11.034;2023-12-20T06:39:03;4.10;99.90
13472;DHT22;6808;49.444;11.034;2023-12-20T06:41:30;4.10;99.90
13472;DHT22;6808;49.444;11.034;2023-12-20T06:43:55;4.20;99.90
13472;DHT22;6808;49.444;11.034;2023-12-20T06:46:21;4.20;99.90
13472;DHT22;6808;49.444;11.034;2023-12-20T06:48:46;4.20;99.90
13472;DHT22;6808;49.444;11.034;2023-12-20T06:51:16;4.20;99.90
13472;DHT22;6808;49.444;11.034;2023-12-20T06:53:42;4.20;99.90
13472;DHT22;6808;49.444;11.034;2023-12-20T06:56:07;4.20;99.90
13472;DHT22;6808;49.444;11.034;2023-12-20T06:58:34;4.20;99.90
13472;DHT22;6808;49.444;11.034;2023-12-20T07:01:00;4.20;99.90
13472;DHT22;6808;49.444;11.034;2023-12-20T07:03:26;4.20;99.90
13472;DHT22;6808;49.444;11.034;2023-12-20T07:05:51;4.20;99.90
13472;DHT22;6808;49.444;11.034;2023-12-20T07:08:17;4.20;99.90
13472;DHT22;6808;49.444;11.034;2023-12-20T07:10:42;4.20;99.90
13472;DHT22;6808;49.444;11.034;2023-12-20T07:13:09;4.20;99.90
13472;DHT22;6808;49.444;11.034;2023-12-20T07:15:35;4.20;99.90
13472;DHT22;6808;49.444;11.034;2023-12-20T07:18:02;4.20;99.90
13472;DHT22;6808;49.444;11.034;2023-12-20T07:20:27;4.20;99.90
13472;DHT22;6808;49.444;11.034;2023-12-20T07:22:53;4.20;99.90
13472;DHT22;6808;49.444;11.034;2023-12-20T07:25:18;4.30;99.90
13472;DHT22;6808;49.444;11.034;2023-12-20T07:27:45;4.20;99.90
13472;DHT22;6808;49.444;11.034;2023-12-20T07:30:11;4.30;99.90
13472;DHT22;6808;49.444;11.034;2023-12-20T07:32:37;4.30;99.90
13472;DHT22;6808;49.444;11.034;2023-12-20T07:35:02;4.30;99.90
13472;DHT22;6808;49.444;11.034;2023-12-20T07:37:28;4.30;99.90
13472;DHT22;6808;49.444;11.034;2023-12-20T07:39:54;4.30;99.90
13472;DHT22;6808;49.444;11.034;2023-12-20T07:42:19;4.30;99.90
13472;DHT22;6808;49.444;11.034;2023-12-20T07:44:45;4.30;99.90
13472;DHT22;6808;49.444;11.034;2023-12-20T07:47:10;4.40;99.90
13472;DHT22;6808;49.444;11.034;2023-12-20T07:49:38;4.40;99.90
13472;DHT22;6808;49.444;11.034;2023-12-20T07:52:04;4.40;99.90
13472;DHT22;6808;49.444;11.034;2023-12-20T07:54:30;4.40;99.90
13472;DHT22;6808;49.444;11.034;2023-12-20T07:56:55;4.40;99.90
13472;DHT22;6808;49.444;11.034;2023-12-20T07:59:22;4.40;99.90
13472;DHT22;6808;49.444;11.034;2023-12-20T08:01:47;4.40;99.90
13472;DHT22;6808;49.444;11.034;2023-12-20T08:04:13;4.40;99.90
13472;DHT22;6808;49.444;11.034;2023-12-20T08:06:38;4.50;99.90
13472;DHT22;6808;49.444;11.034;2023-12-20T08:09:04;4.50;99.90
13472;DHT22;6808;49.444;11.034;2023-12-20T08:11:29;4.50;99.90
13472;DHT22;6808;49.444;11.034;2023-12-20T08:13:55;4.50;99.90
13472;DHT22;6808;49.444;11.034;2023-12-20T08:16:20;4.50;99.90
13472;DHT22;6808;49.444;11.034;2023-12-20T08:18:47;4.60;99.90
13472;DHT22;6808;49.444;11.034;2023-12-20T08:21:14;4.60;99.90
13472;DHT22;6808;49.444;11.034;2023-12-20T08:23:40;4.60;99.90
13472;DHT22;6808;49.444;11.034;2023-12-20T08:26:06;4.60;99.90
13472;DHT22;6808;49.444;11.034;2023-12-20T08:28:32;4.60;99.90
13472;DHT22;6808;49.444;11.034;2023-12-20T08:30:58;4.60;99.90
13472;DHT22;6808;49.444;11.034;2023-12-20T08:33:24;4.60;99.90
13472;DHT22;6808;49.444;11.034;2023-12-20T08:35:49;5.40;99.90
13472;DHT22;6808;49.444;11.034;2023-12-20T08:38:15;4.70;99.90
13472;DHT22;6808;49.444;11.034;2023-12-20T08:40:40;4.70;99.90
13472;DHT22;6808;49.444;11.034;2023-12-20T08:43:06;4.70;99.90
13472;DHT22;6808;49.444;11.034;2023-12-20T08:45:33;4.70;99.90
13472;DHT22;6808;49.444;11.034;2023-12-20T08:47:58;4.70;99.90
13472;DHT22;6808;49.444;11.034;2023-12-20T08:50:25;4.70;99.90
13472;DHT22;6808;49.444;11.034;2023-12-20T08:52:51;4.70;99.90
13472;DHT22;6808;49.444;11.034;2023-12-20T08:55:16;4.70;99.90
13472;DHT22;6808;49.444;11.034;2023-12-20T08:57:43;4.80;99.90
13472;DHT22;6808;49.444;11.034;2023-12-20T09:00:09;4.80;99.90
13472;DHT22;6808;49.444;11.034;2023-12-20T09:02:35;4.70;99.90
13472;DHT22;6808;49.444;11.034;2023-12-20T09:05:02;4.80;99.90
13472;DHT22;6808;49.444;11.034;2023-12-20T09:07:27;4.90;99.90
13472;DHT22;6808;49.444;11.034;2023-12-20T09:09:56;4.80;99.90
13472;DHT22;6808;49.444;11.034;2023-12-20T09:12:21;4.80;99.90
13472;DHT22;6808;49.444;11.034;2023-12-20T09:14:47;4.80;99.90
13472;DHT22;6808;49.444;11.034;2023-12-20T09:17:15;4.80;99.90
13472;DHT22;6808;49.444;11.034;2023-12-20T09:19:41;4.90;99.90
13472;DHT22;6808;49.444;11.034;2023-12-20T09:22:07;4.80;99.90
13472;DHT22;6808;49.444;11.034;2023-12-20T09:24:33;4.80;99.90
13472;DHT22;6808;49.444;11.034;2023-12-20T09:26:58;4.80;99.90
13472;DHT22;6808;49.444;11.034;2023-12-20T09:29:24;4.80;99.90
13472;DHT22;6808;49.444;11.034;2023-12-20T09:31:50;4.80;99.90
13472;DHT22;6808;49.444;11.034;2023-12-20T09:34:16;4.80;99.90
13472;DHT22;6808;49.444;11.034;2023-12-20T09:36:42;4.80;99.90
13472;DHT22;6808;49.444;11.034;2023-12-20T09:39:18;4.80;99.90
13472;DHT22;6808;49.444;11.034;2023-12-20T09:42:04;4.80;99.90
13472;DHT22;6808;49.444;11.034;2023-12-20T09:44:31;4.80;99.90
13472;DHT22;6808;49.444;11.034;2023-12-20T09:46:57;4.80;99.90
13472;DHT22;6808;49.444;11.034;2023-12-20T09:49:23;4.90;99.90
13472;DHT22;6808;49.444;11.034;2023-12-20T09:51:51;4.90;99.90
13472;DHT22;6808;49.444;11.034;2023-12-20T09:54:18;4.90;99.90
13472;DHT22;6808;49.444;11.034;2023-12-20T09:56:44;4.90;99.90
13472;DHT22;6808;49.444;11.034;2023-12-20T09:59:10;4.90;99.90
13472;DHT22;6808;49.444;11.034;2023-12-20T10:01:36;5.00;99.90
13472;DHT22;6808;49.444;11.034;2023-12-20T10:04:06;5.00;99.90
13472;DHT22;6808;49.444;11.034;2023-12-20T10:06:38;5.00;99.90
13472;DHT22;6808;49.444;11.034;2023-12-20T10:09:04;5.10;99.90
13472;DHT22;6808;49.444;11.034;2023-12-20T10:11:31;5.10;99.90
13472;DHT22;6808;49.444;11.034;2023-12-20T10:14:00;5.20;99.90
13472;DHT22;6808;49.444;11.034;2023-12-20T10:16:28;5.30;99.90
13472;DHT22;6808;49.444;11.034;2023-12-20T10:18:55;5.30;99.90
13472;DHT22;6808;49.444;11.034;2023-12-20T10:21:21;5.40;99.90
13472;DHT22;6808;49.444;11.034;2023-12-20T10:23:48;5.40;99.90
13472;DHT22;6808;49.444;11.034;2023-12-20T10:26:22;5.10;99.90
13472;DHT22;6808;49.444;11.034;2023-12-20T10:28:55;5.40;99.90
13472;DHT22;6808;49.444;11.034;2023-12-20T10:31:32;5.40;99.90
13472;DHT22;6808;49.444;11.034;2023-12-20T10:34:00;5.40;99.90
13472;DHT22;6808;49.444;11.034;2023-12-20T10:36:27;5.40;99.90
13472;DHT22;6808;49.444;11.034;2023-12-20T10:38:53;5.40;99.90
13472;DHT22;6808;49.444;11.034;2023-12-20T10:41:30;5.40;99.90
13472;DHT22;6808;49.444;11.034;2023-12-20T10:44:00;5.50;99.90
13472;DHT22;6808;49.444;11.034;2023-12-20T10:46:30;5.50;99.90
13472;DHT22;6808;49.444;11.034;2023-12-20T10:48:56;5.50;99.90
13472;DHT22;6808;49.444;11.034;2023-12-20T10:51:23;5.50;99.90
13472;DHT22;6808;49.444;11.034;2023-12-20T10:53:52;5.50;99.90
13472;DHT22;6808;49.444;11.034;2023-12-20T10:56:19;5.50;99.90
13472;DHT22;6808;49.444;11.034;2023-12-20T10:58:46;5.50;99.90
13472;DHT22;6808;49.444;11.034;2023-12-20T11:01:14;5.50;99.90
13472;DHT22;6808;49.444;11.034;2023-12-20T11:03:49;5.50;99.90
13472;DHT22;6808;49.444;11.034;2023-12-20T11:12:15;5.50;99.90
13472;DHT22;6808;49.444;11.034;2023-12-20T11:14:48;5.50;99.90
13472;DHT22;6808;49.444;11.034;2023-12-20T11:17:14;5.50;99.90
13472;DHT22;6808;49.444;11.034;2023-12-20T11:20:04;5.50;99.90
13472;DHT22;6808;49.444;11.034;2023-12-20T11:22:31;5.50;99.90
13472;DHT22;6808;49.444;11.034;2023-12-20T11:25:08;5.40;99.90
13472;DHT22;6808;49.444;11.034;2023-12-20T11:27:35;5.40;99.90
13472;DHT22;6808;49.444;11.034;2023-12-20T11:30:03;5.40;99.90
13472;DHT22;6808;49.444;11.034;2023-12-20T11:32:32;5.40;99.90
13472;DHT22;6808;49.444;11.034;2023-12-20T11:35:00;5.30;99.90
13472;DHT22;6808;49.444;11.034;2023-12-20T11:37:35;5.30;99.90
13472;DHT22;6808;49.444;11.034;2023-12-20T11:40:03;5.40;99.90
13472;DHT22;6808;49.444;11.034;2023-12-20T11:42:40;5.40;99.90
13472;DHT22;6808;49.444;11.034;2023-12-20T11:45:17;5.40;99.90
13472;DHT22;6808;49.444;11.034;2023-12-20T11:47:49;5.40;99.90
13472;DHT22;6808;49.444;11.034;2023-12-20T11:50:21;5.40;99.90
13472;DHT22;6808;49.444;11.034;2023-12-20T11:52:48;5.50;99.90
13472;DHT22;6808;49.444;11.034;2023-12-20T11:55:14;5.50;99.90
13472;DHT22;6808;49.444;11.034;2023-12-20T11:57:39;5.50;99.90
13472;DHT22;6808;49.444;11.034;2023-12-20T12:00:06;5.50;99.90
13472;DHT22;6808;49.444;11.034;2023-12-20T12:02:32;5.50;99.90
13472;DHT22;6808;49.444;11.034;2023-12-20T12:05:02;5.50;99.90
13472;DHT22;6808;49.444;11.034;2023-12-20T12:07:30;5.50;99.90
13472;DHT22;6808;49.444;11.034;2023-12-20T12:09:56;5.80;99.90
13472;DHT22;6808;49.444;11.034;2023-12-20T12:12:21;5.50;99.90
13472;DHT22;6808;49.444;11.034;2023-12-20T12:14:48;5.40;99.90
13472;DHT22;6808;49.444;11.034;2023-12-20T12:17:15;5.80;99.90
13472;DHT22;6808;49.444;11.034;2023-12-20T12:19:42;5.40;99.90
13472;DHT22;6808;49.444;11.034;2023-12-20T12:22:09;5.50;99.90
13472;DHT22;6808;49.444;11.034;2023-12-20T12:24:39;5.50;99.90
13472;DHT22;6808;49.444;11.034;2023-12-20T12:27:06;5.60;99.90
13472;DHT22;6808;49.444;11.034;2023-12-20T12:29:32;5.70;99.90
13472;DHT22;6808;49.444;11.034;2023-12-20T12:31:58;5.70;99.90
13472;DHT22;6808;49.444;11.034;2023-12-20T12:34:23;5.90;99.90
13472;DHT22;6808;49.444;11.034;2023-12-20T12:36:49;5.70;99.90
13472;DHT22;6808;49.444;11.034;2023-12-20T12:39:17;5.70;99.90
13472;DHT22;6808;49.444;11.034;2023-12-20T12:41:42;5.60;99.90
13472;DHT22;6808;49.444;11.034;2023-12-20T12:44:08;5.70;99.90
13472;DHT22;6808;49.444;11.034;2023-12-20T12:46:34;5.70;99.90
13472;DHT22;6808;49.444;11.034;2023-12-20T12:49:00;5.70;99.90
13472;DHT22;6808;49.444;11.034;2023-12-20T12:51:25;5.80;99.90
13472;DHT22;6808;49.444;11.034;2023-12-20T12:53:51;5.80;99.90
13472;DHT22;6808;49.444;11.034;2023-12-20T12:56:17;5.80;99.90
13472;DHT22;6808;49.444;11.034;2023-12-20T12:58:43;5.80;99.90
13472;DHT22;6808;49.444;11.034;2023-12-20T13:01:08;5.90;99.90
13472;DHT22;6808;49.444;11.034;2023-12-20T13:03:35;5.90;99.90
13472;DHT22;6808;49.444;11.034;2023-12-20T13:06:02;5.90;99.90
13472;DHT22;6808;49.444;11.034;2023-12-20T13:08:29;5.80;99.90
13472;DHT22;6808;49.444;11.034;2023-12-20T13:10:55;5.80;99.90
13472;DHT22;6808;49.444;11.034;2023-12-20T13:13:22;5.80;99.90
13472;DHT22;6808;49.444;11.034;2023-12-20T13:15:49;5.80;99.90
13472;DHT22;6808;49.444;11.034;2023-12-20T13:18:18;5.80;99.90
13472;DHT22;6808;49.444;11.034;2023-12-20T13:20:46;5.80;99.90
13472;DHT22;6808;49.444;11.034;2023-12-20T13:23:12;5.70;99.90
13472;DHT22;6808;49.444;11.034;2023-12-20T13:25:37;5.70;99.90
13472;DHT22;6808;49.444;11.034;2023-12-20T13:28:03;5.70;99.90
13472;DHT22;6808;49.444;11.034;2023-12-20T13:30:29;5.60;99.90
13472;DHT22;6808;49.444;11.034;2023-12-20T13:32:55;5.70;99.90
13472;DHT22;6808;49.444;11.034;2023-12-20T13:35:20;5.70;99.90
13472;DHT22;6808;49.444;11.034;2023-12-20T13:37:47;5.70;99.90
13472;DHT22;6808;49.444;11.034;2023-12-20T13:40:13;5.70;99.90
13472;DHT22;6808;49.444;11.034;2023-12-20T13:42:39;5.70;99.90
13472;DHT22;6808;49.444;11.034;2023-12-20T13:45:05;5.60;99.90
13472;DHT22;6808;49.444;11.034;2023-12-20T13:47:32;5.60;99.90
13472;DHT22;6808;49.444;11.034;2023-12-20T13:49:57;5.30;99.90
13472;DHT22;6808;49.444;11.034;2023-12-20T13:52:23;5.50;99.90
13472;DHT22;6808;49.444;11.034;2023-12-20T13:54:48;5.40;99.90
13472;DHT22;6808;49.444;11.034;2023-12-20T13:57:14;5.40;99.90
13472;DHT22;6808;49.444;11.034;2023-12-20T13:59:40;5.40;99.90
13472;DHT22;6808;49.444;11.034;2023-12-20T14:02:07;5.40;99.90
13472;DHT22;6808;49.444;11.034;2023-12-20T14:04:33;5.40;99.90
13472;DHT22;6808;49.444;11.034;2023-12-20T14:06:58;5.40;99.90
13472;DHT22;6808;49.444;11.034;2023-12-20T14:09:24;5.40;99.90
13472;DHT22;6808;49.444;11.034;2023-12-20T14:11:50;5.40;99.90
13472;DHT22;6808;49.444;11.034;2023-12-20T14:14:16;5.30;99.90
13472;DHT22;6808;49.444;11.034;2023-12-20T14:16:42;5.30;99.90
13472;DHT22;6808;49.444;11.034;2023-12-20T14:19:10;5.30;99.90
13472;DHT22;6808;49.444;11.034;2023-12-20T14:21:37;5.30;99.90
13472;DHT22;6808;49.444;11.034;2023-12-20T14:24:03;5.30;99.90
13472;DHT22;6808;49.444;11.034;2023-12-20T14:26:31;5.30;99.90
13472;DHT22;6808;49.444;11.034;2023-12-20T14:28:57;5.20;99.90
13472;DHT22;6808;49.444;11.034;2023-12-20T14:31:23;5.20;99.90
13472;DHT22;6808;49.444;11.034;2023-12-20T14:33:50;5.20;99.90
13472;DHT22;6808;49.444;11.034;2023-12-20T14:36:16;5.10;99.90
13472;DHT22;6808;49.444;11.034;2023-12-20T14:38:43;5.10;99.90
13472;DHT22;6808;49.444;11.034;2023-12-20T14:41:09;5.10;99.90
13472;DHT22;6808;49.444;11.034;2023-12-20T14:43:35;5.10;99.90
13472;DHT22;6808;49.444;11.034;2023-12-20T14:46:01;5.10;99.90
13472;DHT22;6808;49.444;11.034;2023-12-20T14:48:27;5.10;99.90
13472;DHT22;6808;49.444;11.034;2023-12-20T14:50:53;5.00;99.90
13472;DHT22;6808;49.444;11.034;2023-12-20T14:53:19;5.00;99.90
13472;DHT22;6808;49.444;11.034;2023-12-20T14:55:45;5.00;99.90
13472;DHT22;6808;49.444;11.034;2023-12-20T14:58:12;5.00;99.90
13472;DHT22;6808;49.444;11.034;2023-12-20T15:00:40;5.00;99.90
13472;DHT22;6808;49.444;11.034;2023-12-20T15:03:05;5.00;99.90
13472;DHT22;6808;49.444;11.034;2023-12-20T15:05:32;4.90;99.90
13472;DHT22;6808;49.444;11.034;2023-12-20T15:07:57;5.00;99.90
13472;DHT22;6808;49.444;11.034;2023-12-20T15:10:23;4.90;99.90
13472;DHT22;6808;49.444;11.034;2023-12-20T15:12:49;4.90;99.90
13472;DHT22;6808;49.444;11.034;2023-12-20T15:15:14;4.90;99.90
13472;DHT22;6808;49.444;11.034;2023-12-20T15:17:41;4.90;99.90
13472;DHT22;6808;49.444;11.034;2023-12-20T15:20:07;4.90;99.90
13472;DHT22;6808;49.444;11.034;2023-12-20T15:22:35;4.90;99.90
13472;DHT22;6808;49.444;11.034;2023-12-20T15:25:01;4.90;99.90
13472;DHT22;6808;49.444;11.034;2023-12-20T15:27:28;4.90;99.90
13472;DHT22;6808;49.444;11.034;2023-12-20T15:29:53;4.90;99.90
13472;DHT22;6808;49.444;11.034;2023-12-20T15:32:19;4.80;99.90
13472;DHT22;6808;49.444;11.034;2023-12-20T15:34:45;4.80;99.90
13472;DHT22;6808;49.444;11.034;2023-12-20T15:37:11;4.80;99.90
13472;DHT22;6808;49.444;11.034;2023-12-20T15:39:37;4.80;99.90
13472;DHT22;6808;49.444;11.034;2023-12-20T15:42:02;4.80;99.90
13472;DHT22;6808;49.444;11.034;2023-12-20T15:44:28;4.80;99.90